Time;durP1;ratioP1;P1;durP2;ratioP2;P2;SDS_P1;SDS_P2;PMS_P1;PMS_P2;Temp;Humidity;BMP_temperature;BMP_pressure;BME280_temperature;BME280_humidity;BME280_pressure;Samples;Min_cycle;Max_cycle;Signal;HPM_P1;HPM_P2
2023/04/19 00:01:07;;;;;;;46.63;5.95;;;;;;;8.21;85.13;100279.66;10377046;28;20163;-73
2023/04/19 00:06:09;;;;;;;56.47;7.53;;;;;;;8.78;85.12;100371.91;10377948;28;20141;-74
2023/04/19 00:11:09;;;;;;;39.55;5.50;;;;;;;8.59;85.21;100336.72;10378260;28;20045;-73
2023/04/19 00:16:10;;;;;;;52.35;7.20;;;;;;;8.34;85.14;100300.41;10348181;28;20548;-74
2023/04/19 00:21:11;;;;;;;48.72;6.40;;;;;;;8.67;85.50;100351.81;10337646;28;20446;-73
2023/04/19 00:26:23;;;;;;;41.58;6.47;;;;;;;8.16;nan;100276.63;10336242;28;20050;-74
2023/04/19 00:31:23;;;;;;;57.42;6.22;;;;;;;8.49;86.02;100335.13;10337303;28;20128;-74
2023/04/19 00:36:25;;;;;;;48.85;7.07;;;;;;;8.69;85.55;100347.19;10375842;28;20073;-73
2023/04/19 00:41:26;;;;;;;56.80;8.02;;;;;;;8.71;85.73;100336.47;10375965;28;20052;-73
2023/04/19 00:46:27;;;;;;;45.40;6.15;;;;;;;8.20;85.42;100244.44;10376065;28;20456;-75
2023/04/19 00:51:28;;;;;;;46.50;6.40;;;;;;;8.36;85.60;100264.03;10334267;28;20141;-73
2023/04/19 00:56:32;;;;;;;50.88;6.72;;;;;;;8.55;85.45;100295.63;10336021;28;20133;-73
2023/04/19 01:01:33;;;;;;;37.00;5.73;;;;;;;8.39;85.42;100283.13;10335589;28;20043;-74
2023/04/19 01:06:35;;;;;;;43.30;6.18;;;;;;;8.58;85.29;100313.00;10334559;28;20474;-74
2023/04/19 01:11:36;;;;;;;49.30;6.97;;;;;;;8.61;85.45;100302.94;10333399;28;20548;-74
2023/04/19 01:16:37;;;;;;;52.30;5.93;;;;;;;8.60;85.10;100272.16;10334546;28;20048;-73
2023/04/19 01:21:39;;;;;;;45.45;5.25;;;;;;;8.62;85.15;100272.84;10333639;28;20125;-73
2023/04/19 01:26:40;;;;;;;40.58;5.90;;;;;;;8.57;85.21;100284.88;10333755;28;20093;-73
2023/04/19 01:31:41;;;;;;;48.90;6.25;;;;;;;8.40;85.31;100268.06;10332478;28;20042;-74
2023/04/19 01:36:42;;;;;;;53.67;6.35;;;;;;;8.37;85.03;100278.94;10333385;28;20054;-73
2023/04/19 01:41:43;;;;;;;46.75;6.32;;;;;;;8.31;84.86;100271.59;10334051;28;20053;-74
2023/04/19 01:46:44;;;;;;;36.63;4.75;;;;;;;8.19;84.75;100261.28;10332126;28;20041;-73
2023/04/19 01:51:45;;;;;;;45.80;6.72;;;;;;;8.34;85.19;100284.53;10331151;28;20065;-74
2023/04/19 01:56:47;;;;;;;36.95;5.10;;;;;;;7.88;84.92;100204.50;10333125;28;20068;-74
2023/04/19 02:01:47;;;;;;;35.83;5.03;;;;;;;8.30;84.74;100283.19;10333225;28;20418;-75
2023/04/19 02:06:48;;;;;;;40.58;6.38;;;;;;;8.21;85.04;100254.00;10332546;28;20039;-74
2023/04/19 02:11:49;;;;;;;49.63;6.28;;;;;;;8.35;85.01;100276.44;10321748;28;20558;-75
2023/04/19 02:16:53;;;;;;;35.22;5.65;;;;;;;8.29;85.74;100265.66;10291765;28;20531;-74
2023/04/19 02:21:56;;;;;;;51.05;5.93;;;;;;;7.99;85.46;100207.75;10326191;28;20042;-74
2023/04/19 02:26:57;;;;;;;43.55;5.97;;;;;;;8.21;85.86;100261.13;10332517;28;20595;-75
2023/04/19 02:31:58;;;;;;;35.60;5.88;;;;;;;7.88;86.27;100199.22;10331987;28;20136;-74
2023/04/19 02:36:59;;;;;;;42.33;6.20;;;;;;;8.16;86.55;100256.28;10330908;28;20046;-74
2023/04/19 02:42:00;;;;;;;42.17;6.43;;;;;;;8.09;87.01;100238.56;10331291;28;20042;-74
2023/04/19 02:47:00;;;;;;;51.13;6.18;;;;;;;8.08;87.28;100221.84;10330008;28;20541;-74
2023/04/19 02:52:01;;;;;;;48.45;6.40;;;;;;;8.12;86.94;100239.06;10329498;28;20145;-75
2023/04/19 02:57:02;;;;;;;58.78;7.18;;;;;;;8.31;87.76;100261.84;10330177;28;20079;-76
2023/04/19 03:02:03;;;;;;;53.75;6.72;;;;;;;7.65;87.82;100167.97;10328359;28;20375;-76
2023/04/19 03:07:05;;;;;;;71.82;7.30;;;;;;;7.76;88.87;100202.09;10332842;28;20631;-77
2023/04/19 03:12:07;;;;;;;53.33;7.20;;;;;;;8.21;88.96;100275.19;10310875;28;20038;-77
2023/04/19 03:17:08;;;;;;;49.03;5.85;;;;;;;8.30;88.74;100276.06;10298982;28;20053;-76
2023/04/19 03:22:09;;;;;;;36.80;5.95;;;;;;;7.83;88.92;100197.03;10296475;28;20091;-76
2023/04/19 03:27:09;;;;;;;53.40;7.82;;;;;;;8.26;89.35;100265.97;10297920;28;20043;-76
2023/04/19 03:32:10;;;;;;;43.78;6.32;;;;;;;7.71;89.44;100174.44;10298603;28;20070;-80
2023/04/19 03:37:11;;;;;;;49.85;6.53;;;;;;;8.02;89.05;100214.53;10297480;28;20075;-79
2023/04/19 03:42:12;;;;;;;47.92;6.78;;;;;;;8.34;89.27;100276.59;10296798;28;20043;-76
2023/04/19 03:47:13;;;;;;;47.05;5.93;;;;;;;8.36;89.35;100266.69;11232100;23;20507;-78
2023/04/19 03:57:30;;;;;;;41.33;6.05;;;;;;;8.30;88.48;100232.91;10249761;29;20290;-78
2023/04/19 04:12:58;;;;;;;45.83;10.07;;;;;;;8.28;87.67;100195.16;10651163;23;20076;-72
2023/04/19 04:28:19;;;;;;;60.15;7.97;;;;;;;8.36;87.24;100177.53;10494577;23;20372;-78
2023/04/19 04:33:20;;;;;;;36.65;6.78;;;;;;;8.61;86.96;100204.97;10417296;28;20053;-78
2023/04/19 04:38:20;;;;;;;38.05;5.78;;;;;;;8.76;86.53;100188.47;10417251;28;20124;-81
2023/04/19 04:43:27;;;;;;;44.90;7.43;;;;;;;9.28;86.50;100244.78;10417045;28;20045;-78
2023/04/19 04:48:30;;;;;;;39.13;6.68;;;;;;;9.01;85.92;100200.81;10407505;28;20065;-78
2023/04/19 04:53:30;;;;;;;42.42;6.07;;;;;;;9.00;85.80;100201.78;10375705;28;20552;-78
2023/04/19 04:58:31;;;;;;;32.25;6.00;;;;;;;8.94;85.08;100175.13;10335804;28;20042;-78
2023/04/19 05:03:32;;;;;;;42.63;6.00;;;;;;;9.03;84.20;100159.06;10334721;28;20034;-78
2023/04/19 05:08:33;;;;;;;47.40;6.80;;;;;;;9.69;83.95;100233.41;10334950;28;20039;-78
2023/04/19 05:13:33;;;;;;;45.67;6.72;;;;;;;9.87;83.15;100226.13;10335004;28;20049;-78
2023/04/19 05:18:34;;;;;;;38.55;6.03;;;;;;;10.07;82.50;100223.94;10334104;28;20038;-78
2023/04/19 05:23:37;;;;;;;36.47;5.03;;;;;;;10.15;81.02;100180.66;10333216;28;20133;-77
2023/04/19 05:28:39;;;;;;;40.95;5.85;;;;;;;10.69;80.40;100249.91;10334334;28;20498;-75
2023/04/19 05:33:40;;;;;;;41.60;5.47;;;;;;;10.82;80.30;100236.06;10334100;28;20038;-78
2023/04/19 05:38:41;;;;;;;28.95;5.60;;;;;;;10.77;79.29;100247.25;10333971;28;20042;-76
2023/04/19 05:43:41;;;;;;;36.60;6.90;;;;;;;10.18;79.48;100151.94;10333820;28;20034;-78
2023/04/19 05:48:42;;;;;;;35.58;6.80;;;;;;;10.71;79.00;100221.34;10333887;28;20038;-78
2023/04/19 05:53:44;;;;;;;30.48;5.95;;;;;;;10.54;78.79;100143.53;10333374;28;20070;-77
2023/04/19 05:58:45;;;;;;;43.55;6.22;;;;;;;11.17;77.92;100210.84;10333192;28;20046;-77
2023/04/19 06:03:46;;;;;;;39.75;5.82;;;;;;;11.39;77.39;100257.88;10332993;28;20446;-76
2023/04/19 06:08:47;;;;;;;42.38;7.22;;;;;;;11.46;76.85;100227.91;10332731;28;20418;-77
2023/04/19 06:13:49;;;;;;;41.53;6.18;;;;;;;11.65;76.59;100243.44;10332702;28;20053;-77
2023/04/19 06:18:50;;;;;;;38.63;6.25;;;;;;;11.66;75.57;100223.78;10332467;28;20054;-77
2023/04/19 06:23:51;;;;;;;26.92;6.43;;;;;;;11.28;76.06;100167.91;10332290;28;20064;-77
2023/04/19 06:28:51;;;;;;;28.60;5.40;;;;;;;11.88;75.89;100248.78;10331852;28;20046;-76
2023/04/19 06:33:52;;;;;;;22.65;5.47;;;;;;;11.80;75.21;100201.72;10332009;28;20124;-76
2023/04/19 06:38:53;;;;;;;32.33;6.18;;;;;;;12.22;74.23;100229.66;10330523;28;20046;-78
2023/04/19 06:43:54;;;;;;;42.92;7.45;;;;;;;11.95;74.15;100158.38;10332461;28;20534;-77
2023/04/19 06:48:55;;;;;;;31.10;5.65;;;;;;;12.52;72.77;100245.69;10331412;28;20042;-76
2023/04/19 06:53:56;;;;;;;29.08;5.65;;;;;;;12.62;72.68;100232.06;10331383;28;20042;-77
2023/04/19 06:58:56;;;;;;;27.63;5.95;;;;;;;12.58;72.46;100226.28;10331462;28;20056;-77
2023/04/19 07:03:57;;;;;;;25.13;5.88;;;;;;;12.70;72.29;100267.47;10331526;28;20039;-77
2023/04/19 07:08:58;;;;;;;29.35;5.70;;;;;;;12.78;71.75;100258.56;10330795;28;20502;-77
2023/04/19 07:14:02;;;;;;;38.20;6.30;;;;;;;12.45;71.43;100186.16;10331556;28;20048;-78
2023/04/19 07:19:03;;;;;;;24.02;4.60;;;;;;;13.51;70.59;100272.81;10331170;28;20387;-77
2023/04/19 07:24:06;;;;;;;28.60;5.38;;;;;;;13.12;69.74;100179.78;10330267;28;20054;-77
2023/04/19 07:29:07;;;;;;;21.88;5.35;;;;;;;13.31;69.83;100202.38;10331107;28;20446;-79
2023/04/19 07:34:08;;;;;;;30.98;6.15;;;;;;;13.73;69.13;100238.97;10330921;28;20162;-78
2023/04/19 07:39:09;;;;;;;28.15;5.30;;;;;;;14.06;68.93;100259.78;10330375;28;20125;-78
2023/04/19 07:44:10;;;;;;;35.35;5.80;;;;;;;13.91;68.76;100247.34;10330819;28;20521;-78
2023/04/19 07:49:12;;;;;;;41.78;6.18;;;;;;;13.85;69.00;100247.25;10335013;28;20049;-78
2023/04/19 07:54:15;;;;;;;34.85;6.25;;;;;;;13.67;68.88;100216.53;10337531;28;20461;-78
2023/04/19 07:59:15;;;;;;;18.35;5.40;;;;;;;13.45;68.51;100142.81;10337539;28;20042;-79
2023/04/19 08:04:18;;;;;;;32.65;6.03;;;;;;;13.96;67.77;100229.91;10337013;28;20038;-78
2023/04/19 08:09:19;;;;;;;29.38;5.65;;;;;;;14.51;66.78;100223.78;10336995;28;20502;-79
2023/04/19 08:14:20;;;;;;;31.40;5.97;;;;;;;15.26;65.45;100226.56;10337167;28;20045;-79
2023/04/19 08:19:21;;;;;;;57.75;16.90;;;;;;;14.63;64.32;100121.59;10336579;28;20499;-78
2023/04/19 08:24:22;;;;;;;31.42;7.10;;;;;;;14.69;64.50;100131.50;10336924;28;20054;-78
2023/04/19 08:29:22;;;;;;;202.05;87.35;;;;;;;14.79;63.82;100115.91;10336714;28;20520;-78
2023/04/19 08:34:23;;;;;;;51.80;12.20;;;;;;;15.18;63.63;100194.63;10335891;28;20124;-77
2023/04/19 08:39:24;;;;;;;58.53;11.60;;;;;;;14.92;63.61;100142.69;10335784;28;20121;-78
2023/04/19 08:44:26;;;;;;;31.83;6.93;;;;;;;15.07;63.86;100196.84;10336737;28;20050;-78
2023/04/19 08:49:27;;;;;;;25.85;5.97;;;;;;;15.36;63.79;100194.06;10335840;28;20486;-80
2023/04/19 08:54:29;;;;;;;34.80;5.68;;;;;;;15.15;61.80;100063.94;10318312;28;20053;-79
2023/04/19 08:59:29;;;;;;;45.33;9.15;;;;;;;16.52;61.00;100207.88;10334194;28;20092;-77
2023/04/19 09:04:30;;;;;;;34.85;6.80;;;;;;;17.44;59.52;100199.63;10335511;28;20046;-77
2023/04/19 09:09:31;;;;;;;33.35;6.80;;;;;;;17.82;57.87;100190.72;10335186;28;20414;-77
2023/04/19 09:14:32;;;;;;;39.38;6.78;;;;;;;17.96;56.86;100181.50;10334831;28;20049;-77
2023/04/19 09:19:46;;;;;;;31.80;6.55;;;;;;;18.52;55.79;100191.31;10334899;28;20048;-78
2023/04/19 09:24:47;;;;;;;40.40;6.68;;;;;;;18.97;55.57;100177.56;10334595;28;20113;-77
2023/04/19 09:29:55;;;;;;;41.90;6.22;;;;;;;18.90;52.17;100176.78;10333407;28;20046;-76
2023/04/19 09:34:58;;;;;;;36.88;7.35;;;;;;;18.47;54.60;100156.19;10333797;28;20046;-78
2023/04/19 09:39:59;;;;;;;41.03;6.13;;;;;;;19.41;54.16;100183.53;10333943;28;20042;-78
2023/04/19 09:45:00;;;;;;;45.30;6.90;;;;;;;18.82;53.89;100096.41;10334289;28;20049;-77
2023/04/19 09:50:19;;;;;;;45.10;7.60;;;;;;;19.22;52.48;100161.25;10333456;28;20038;-76
2023/04/19 09:55:21;;;;;;;35.78;5.80;;;;;;;18.52;53.68;100072.09;10333394;28;20128;-76
2023/04/19 10:00:22;;;;;;;34.00;6.70;;;;;;;18.22;54.56;100151.69;10333731;28;20061;-75
2023/04/19 10:05:24;;;;;;;36.95;6.40;;;;;;;17.76;55.43;100155.59;10333690;28;20202;-75
2023/04/19 10:10:26;;;;;;;36.10;5.95;;;;;;;17.44;56.12;100156.66;10332100;28;20038;-75
2023/04/19 10:15:29;;;;;;;28.85;5.20;;;;;;;16.85;56.63;100170.22;10332695;28;20141;-76
2023/04/19 10:20:36;;;;;;;26.15;5.35;;;;;;;16.91;57.21;100168.56;10332511;28;20128;-75
2023/04/19 10:25:37;;;;;;;26.05;5.20;;;;;;;16.85;56.99;100143.41;10332714;28;20058;-76
2023/04/19 10:31:02;;;;;;;26.30;5.18;;;;;;;17.41;57.04;100162.47;10332214;28;20046;-76
2023/04/19 10:36:07;;;;;;;29.85;6.28;;;;;;;17.15;56.63;100153.56;10332705;28;20161;-78
2023/04/19 10:41:13;;;;;;;34.42;5.38;;;;;;;17.22;56.69;100122.13;10314077;28;20068;-76
2023/04/19 10:46:36;;;;;;;21.15;4.43;;;;;;;17.28;56.79;100104.34;10331291;28;20035;-76
2023/04/19 10:51:41;;;;;;;30.35;5.10;;;;;;;17.12;57.24;100178.16;10331635;28;20486;-77
2023/04/19 10:57:04;;;;;;;25.63;4.90;;;;;;;16.64;58.07;100186.59;10332149;28;20501;-76
2023/04/19 11:02:28;;;;;;;28.87;5.27;;;;;;;16.61;58.57;100192.38;10331565;28;20045;-77
2023/04/19 11:07:36;;;;;;;26.30;4.82;;;;;;;16.86;58.02;100193.34;10331431;28;20044;-76
2023/04/19 11:12:41;;;;;;;28.08;5.40;;;;;;;16.86;58.16;100254.22;10330713;28;20046;-77
2023/04/19 11:17:42;;;;;;;23.42;4.85;;;;;;;16.36;58.04;100235.97;10331213;28;20403;-77
2023/04/19 11:22:46;;;;;;;25.58;4.63;;;;;;;17.31;57.83;100358.97;10333272;28;20050;-77
2023/04/19 11:27:52;;;;;;;;;;;;;;;17.96;56.98;100332.03;10338965;28;20049;-77
2023/04/19 11:32:55;;;;;;;27.80;4.95;;;;;;;17.47;57.23;100295.88;10339022;28;19980;-77
2023/04/19 11:37:58;;;;;;;24.67;4.80;;;;;;;17.77;57.13;100302.38;10338581;28;20046;-77
2023/04/19 11:43:01;;;;;;;21.55;5.30;;;;;;;17.93;57.18;100289.47;10338591;28;20049;-78
2023/04/19 11:48:04;;;;;;;32.97;8.48;;;;;;;17.32;56.77;100194.97;10338902;28;20137;-77
2023/04/19 11:53:17;;;;;;;33.08;6.47;;;;;;;17.57;57.79;100227.25;10338289;28;20077;-78
2023/04/19 11:58:32;;;;;;;30.97;6.80;;;;;;;17.26;58.72;100192.31;10366440;28;20049;-76
2023/04/19 12:03:53;;;;;;;27.90;6.03;;;;;;;16.98;59.43;100187.31;10378780;28;20524;-76
2023/04/19 12:08:56;;;;;;;27.45;5.55;;;;;;;16.23;59.73;100064.44;10377389;28;20034;-79
2023/04/19 12:14:13;;;;;;;28.70;6.22;;;;;;;16.33;60.75;100080.91;10378303;28;20177;-77
2023/04/19 12:19:19;;;;;;;28.85;7.45;;;;;;;16.43;59.48;100003.50;10377393;28;20038;-77
2023/04/19 12:24:20;;;;;;;25.20;5.45;;;;;;;16.47;59.94;100014.63;10377443;28;20239;-78
2023/04/19 12:29:20;;;;;;;30.60;5.90;;;;;;;16.69;59.59;100020.47;10375730;28;20061;-77
2023/04/19 12:34:21;;;;;;;25.33;4.80;;;;;;;16.31;59.09;99932.84;10357789;28;20037;-80
2023/04/19 12:39:22;;;;;;;27.58;5.80;;;;;;;16.63;59.44;99992.69;10375778;28;20049;-78
2023/04/19 12:44:23;;;;;;;37.15;5.60;;;;;;;16.35;59.04;99868.91;10376651;28;20125;-80
2023/04/19 12:49:24;;;;;;;22.17;4.65;;;;;;;17.03;57.92;99855.56;10376558;28;20049;-78
2023/04/19 12:54:25;;;;;;;36.33;9.07;;;;;;;17.78;56.63;99903.69;10371448;28;20514;-76
2023/04/19 12:59:25;;;;;;;28.92;7.05;;;;;;;17.89;55.99;99934.38;10374741;28;20412;-74
2023/04/19 13:04:26;;;;;;;28.73;5.68;;;;;;;18.16;55.57;99972.47;10376881;28;20393;-76
2023/04/19 13:09:27;;;;;;;27.08;4.63;;;;;;;18.42;55.25;99984.72;10375095;28;20545;-76
2023/04/19 13:14:28;;;;;;;35.47;7.53;;;;;;;18.46;55.18;99961.72;10374887;28;20413;-76
2023/04/19 13:19:29;;;;;;;24.73;5.45;;;;;;;17.98;55.54;99903.44;10375299;28;20042;-75
2023/04/19 13:24:30;;;;;;;33.60;7.78;;;;;;;17.69;55.94;99894.25;10375176;28;20058;-74
2023/04/19 13:29:31;;;;;;;28.80;6.45;;;;;;;17.56;56.25;99867.59;10374910;28;20042;-76
2023/04/19 13:34:32;;;;;;;41.95;9.02;;;;;;;18.03;56.77;99972.63;10357254;28;20084;-76
2023/04/19 13:39:33;;;;;;;35.40;5.43;;;;;;;17.91;56.99;99980.63;10374614;28;20096;-76
2023/04/19 13:44:35;;;;;;;37.13;9.32;;;;;;;17.89;57.11;99989.94;10374210;28;20508;-76
2023/04/19 13:49:35;;;;;;;24.92;5.70;;;;;;;18.25;57.20;100035.63;10375193;28;20500;-75
2023/04/19 13:54:36;;;;;;;30.27;6.97;;;;;;;18.07;57.59;100041.03;10373862;28;20037;-76
2023/04/19 13:59:37;;;;;;;26.15;6.43;;;;;;;18.02;58.22;100060.50;10373386;28;20091;-75
2023/04/19 14:04:38;;;;;;;25.17;6.03;;;;;;;17.91;58.58;100050.47;10356165;28;20156;-74
2023/04/19 14:09:39;;;;;;;32.38;5.60;;;;;;;17.81;58.62;100039.44;10336206;28;20401;-76
2023/04/19 14:14:40;;;;;;;31.27;5.43;;;;;;;17.62;59.38;100046.63;10331394;28;20136;-76
2023/04/19 14:19:40;;;;;;;32.63;6.38;;;;;;;17.12;59.82;100001.03;10331979;28;20392;-77
2023/04/19 14:24:41;;;;;;;37.42;6.20;;;;;;;17.37;60.29;100032.41;10332811;28;20506;-76
2023/04/19 14:29:42;;;;;;;31.20;6.50;;;;;;;17.47;60.49;100041.59;10332300;28;20039;-76
2023/04/19 14:34:42;;;;;;;33.20;5.97;;;;;;;17.37;60.87;100011.72;10332173;28;20050;-76
2023/04/19 14:39:44;;;;;;;41.33;6.82;;;;;;;17.13;61.41;100013.38;10372208;28;20132;-77
2023/04/19 14:44:46;;;;;;;54.97;15.98;;;;;;;16.89;62.16;100004.28;10372029;28;20048;-76
2023/04/19 14:49:46;;;;;;;30.02;9.02;;;;;;;16.37;62.60;99949.94;10373198;28;20072;-76
2023/04/19 14:54:47;;;;;;;38.92;15.02;;;;;;;16.64;63.01;100009.59;10371613;28;20069;-76
2023/04/19 14:59:48;;;;;;;47.88;19.70;;;;;;;16.47;63.54;100000.41;10378258;28;20041;-77
2023/04/19 15:04:49;;;;;;;32.05;8.32;;;;;;;15.90;63.71;99915.34;10362459;28;20052;-77
2023/04/19 15:09:50;;;;;;;28.25;6.53;;;;;;;16.27;64.22;99995.13;10381001;28;20075;-78
2023/04/19 15:14:51;;;;;;;25.00;5.60;;;;;;;16.08;64.67;99994.19;10379543;28;20124;-78
2023/04/19 15:19:52;;;;;;;31.30;8.52;;;;;;;15.73;64.93;99959.69;10380022;28;20069;-77
2023/04/19 15:24:52;;;;;;;48.85;22.15;;;;;;;16.03;65.33;100016.25;10379518;28;20523;-77
2023/04/19 15:29:53;;;;;;;35.08;11.82;;;;;;;15.41;65.80;99938.16;10380040;28;20062;-78
2023/04/19 15:34:54;;;;;;;40.83;7.28;;;;;;;15.56;66.27;99978.06;10377377;28;20042;-84
2023/04/19 15:39:55;;;;;;;30.92;6.72;;;;;;;15.67;66.72;100027.44;10376552;28;20050;-82
2023/04/19 15:44:55;;;;;;;39.20;8.27;;;;;;;15.67;67.21;100046.19;10378697;28;20037;-80
2023/04/19 15:49:57;;;;;;;33.90;14.02;;;;;;;15.42;67.97;100046.03;10377499;28;20045;-79
2023/04/19 15:54:58;;;;;;;70.60;20.95;;;;;;;15.27;68.97;100049.72;10378432;28;20501;-81
2023/04/19 15:59:59;;;;;;;40.20;16.00;;;;;;;15.45;69.00;100067.84;10378207;28;20042;-85
2023/04/19 16:05:00;;;;;;;43.42;14.88;;;;;;;15.18;69.08;100018.03;10377640;28;20088;-84
2023/04/19 16:10:02;;;;;;;39.92;13.77;;;;;;;15.20;69.38;100026.69;10376959;28;20426;-81
2023/04/19 16:15:04;;;;;;;52.28;16.13;;;;;;;15.14;69.92;99990.88;10378064;28;20046;-79
2023/04/19 16:20:05;;;;;;;32.97;9.40;;;;;;;14.33;70.21;99819.94;10359773;28;20070;-79
2023/04/19 16:25:09;;;;;;;32.13;7.05;;;;;;;14.79;70.33;99926.06;10377618;28;20481;-75
2023/04/19 16:30:11;;;;;;;19.37;6.10;;;;;;;14.81;70.48;99945.41;10375300;28;20042;-79
2023/04/19 16:35:12;;;;;;;35.35;6.72;;;;;;;14.36;70.66;99875.66;10376059;28;20034;-79
2023/04/19 16:40:13;;;;;;;31.63;5.80;;;;;;;14.39;71.04;99905.44;10374014;28;20140;-77
2023/04/19 16:45:15;;;;;;;25.30;6.68;;;;;;;14.36;71.35;99934.44;10359826;28;20116;-77
2023/04/19 16:50:16;;;;;;;29.48;8.20;;;;;;;13.89;71.52;99885.41;10338150;28;20523;-79
2023/04/19 16:55:17;;;;;;;26.05;7.53;;;;;;;13.82;71.92;99903.22;10373833;28;20049;-77
2023/04/19 17:00:18;;;;;;;29.80;7.43;;;;;;;13.82;72.34;99936.13;10374628;28;20041;-80
2023/04/19 17:05:19;;;;;;;22.40;5.47;;;;;;;13.77;71.80;99943.06;10375784;28;20057;-76
2023/04/19 17:10:19;;;;;;;27.60;6.80;;;;;;;13.35;71.16;99867.53;10357594;28;20069;-76
2023/04/19 17:15:20;;;;;;;37.20;5.70;;;;;;;13.33;70.83;99882.91;10373820;28;20575;-75
2023/04/19 17:20:21;;;;;;;18.92;4.35;;;;;;;13.60;71.39;99953.25;10373132;28;20502;-76
2023/04/19 17:25:22;;;;;;;24.60;4.05;;;;;;;13.54;70.85;99962.03;10374670;28;20119;-76
2023/04/19 17:30:23;;;;;;;23.08;4.53;;;;;;;13.40;70.78;99942.44;10373930;28;20040;-79
2023/04/19 17:35:25;;;;;;;29.02;5.07;;;;;;;13.16;70.75;99917.88;10369215;28;20505;-79
2023/04/19 17:40:25;;;;;;;23.08;4.82;;;;;;;13.35;70.50;99959.06;10373348;28;20064;-78
2023/04/19 17:45:26;;;;;;;21.30;4.93;;;;;;;13.12;70.57;99947.78;10374195;28;20049;-79
2023/04/19 17:50:28;;;;;;;26.45;5.40;;;;;;;13.21;71.02;99987.44;10353461;28;20038;-81
2023/04/19 17:55:29;;;;;;;22.55;6.00;;;;;;;13.00;71.15;99976.81;10369440;28;20195;-80
2023/04/19 18:00:30;;;;;;;22.08;5.55;;;;;;;12.98;71.83;99989.50;10372922;28;20498;-77
2023/04/19 18:05:31;;;;;;;23.40;5.28;;;;;;;12.61;71.95;99954.13;10368578;28;20088;-80
2023/04/19 18:10:32;;;;;;;19.95;4.93;;;;;;;12.72;72.82;99998.94;10371745;28;20048;-79
2023/04/19 18:15:33;;;;;;;20.05;6.07;;;;;;;11.70;72.90;99844.59;10372977;28;20049;-81
2023/04/19 18:20:33;;;;;;;16.45;4.78;;;;;;;11.81;73.64;99870.69;10354694;28;20045;-81
2023/04/19 18:25:36;;;;;;;20.77;5.03;;;;;;;12.29;73.66;99969.59;10371869;28;20053;-79
2023/04/19 18:30:37;;;;;;;22.98;5.70;;;;;;;12.19;74.82;99971.72;10372275;28;20088;-79
2023/04/19 18:35:39;;;;;;;22.77;5.65;;;;;;;12.05;74.97;99973.38;10369892;28;20046;-79
2023/04/19 18:40:40;;;;;;;20.60;5.85;;;;;;;10.98;75.80;99810.78;10372590;28;20050;-79
2023/04/19 18:45:41;;;;;;;19.55;5.57;;;;;;;11.86;76.30;99974.81;10369886;28;20034;-80
2023/04/19 18:50:42;;;;;;;22.80;5.32;;;;;;;11.74;77.29;99968.28;10371651;28;20069;-78
2023/04/19 18:55:43;;;;;;;21.75;5.95;;;;;;;11.51;77.57;99959.56;10368607;28;20498;-80
2023/04/19 19:00:43;;;;;;;27.20;5.43;;;;;;;11.54;77.92;99975.16;10367514;28;20386;-79
2023/04/19 19:05:44;;;;;;;23.60;5.50;;;;;;;11.33;78.65;99973.22;10372086;28;20494;-79
2023/04/19 19:10:45;;;;;;;14.93;4.63;;;;;;;11.31;79.02;99997.34;10371455;28;20406;-79
2023/04/19 19:15:46;;;;;;;30.90;5.47;;;;;;;11.14;79.06;99987.88;10371042;28;20045;-80
2023/04/19 19:20:48;;;;;;;25.02;6.25;;;;;;;10.78;79.71;99948.63;10371182;28;20073;-79
2023/04/19 19:25:49;;;;;;;27.50;5.70;;;;;;;10.92;80.45;99985.06;10369699;28;20061;-80
2023/04/19 19:30:50;;;;;;;16.33;4.70;;;;;;;10.95;80.67;100008.63;10354561;28;20558;-78
2023/04/19 19:35:50;;;;;;;24.92;5.47;;;;;;;10.82;81.88;99989.78;10371053;28;20046;-78
2023/04/19 19:40:51;;;;;;;21.15;5.18;;;;;;;10.61;82.56;99971.03;10370862;28;20505;-78
2023/04/19 19:45:52;;;;;;;22.88;5.95;;;;;;;10.41;82.44;99954.72;10359652;28;20088;-77
2023/04/19 19:50:53;;;;;;;25.65;5.65;;;;;;;10.24;82.97;99930.09;10378553;28;20505;-76
2023/04/19 19:55:54;;;;;;;30.55;5.88;;;;;;;10.05;83.71;99915.44;10358860;28;20151;-78
2023/04/19 20:00:55;;;;;;;34.83;5.68;;;;;;;10.19;83.72;99954.50;10379012;28;20046;-78
2023/04/19 20:05:55;;;;;;;24.08;5.38;;;;;;;10.14;83.78;99953.38;10378918;28;20046;-78
2023/04/19 20:10:56;;;;;;;26.92;5.75;;;;;;;9.55;84.25;99869.78;10377184;28;20466;-78
2023/04/19 20:15:57;;;;;;;24.65;5.72;;;;;;;9.39;84.95;99845.97;10378107;28;20131;-77
2023/04/19 20:20:58;;;;;;;23.60;5.05;;;;;;;9.88;85.02;99940.41;10377692;28;20064;-77
2023/04/19 20:26:00;;;;;;;30.08;6.40;;;;;;;9.64;85.34;99914.84;10376990;28;20433;-78
2023/04/19 20:31:00;;;;;;;27.50;5.70;;;;;;;9.71;84.96;99929.03;10375924;28;20049;-77
2023/04/19 20:36:02;;;;;;;30.63;5.30;;;;;;;9.56;85.11;99905.06;10376594;28;20417;-77
2023/04/19 20:41:03;;;;;;;29.00;5.93;;;;;;;9.56;85.00;99915.69;10376250;28;20044;-77
2023/04/19 20:46:05;;;;;;;25.85;6.13;;;;;;;9.63;84.98;99937.84;10377341;28;20044;-78
2023/04/19 20:51:06;;;;;;;24.13;6.03;;;;;;;9.38;85.38;99892.88;10375459;28;20528;-78
2023/04/19 20:56:07;;;;;;;36.67;4.72;;;;;;;9.30;85.82;99873.50;10374849;28;20045;-77
2023/04/19 21:01:08;;;;;;;25.48;5.18;;;;;;;8.95;85.50;99814.69;10376948;28;20128;-78
2023/04/19 21:06:08;;;;;;;24.40;4.78;;;;;;;8.79;85.55;99806.78;10358361;28;20100;-79
2023/04/19 21:11:09;;;;;;;24.60;5.20;;;;;;;9.04;85.45;99836.69;10357857;28;20104;-78
2023/04/19 21:16:10;;;;;;;30.63;4.97;;;;;;;9.44;85.40;99888.72;10374906;28;20092;-79
2023/04/19 21:21:11;;;;;;;25.75;5.13;;;;;;;9.27;85.24;99847.34;10376067;28;20049;-78
2023/04/19 21:26:11;;;;;;;24.65;5.50;;;;;;;8.83;85.22;99784.25;10374830;28;20057;-79
2023/04/19 21:31:12;;;;;;;30.77;5.60;;;;;;;9.38;84.90;99860.25;10374925;28;20045;-78
2023/04/19 21:36:13;;;;;;;34.03;7.00;;;;;;;9.22;84.96;99852.34;10375311;28;20049;-79
2023/04/19 21:41:14;;;;;;;28.33;6.20;;;;;;;9.18;84.78;99841.25;10375147;28;20089;-78
2023/04/19 21:46:14;;;;;;;20.40;4.45;;;;;;;9.18;84.92;99827.19;10373834;28;20046;-78
2023/04/19 21:51:16;;;;;;;22.30;5.00;;;;;;;8.65;84.23;99732.34;10356633;28;20613;-78
2023/04/19 21:56:16;;;;;;;33.85;9.10;;;;;;;9.00;84.46;99820.28;10356705;28;20045;-78
2023/04/19 22:01:17;;;;;;;22.98;5.03;;;;;;;8.22;85.10;99733.56;10373907;28;20120;-77
2023/04/19 22:06:20;;;;;;;28.50;7.07;;;;;;;8.10;84.62;99722.50;10355329;28;20088;-80
2023/04/19 22:11:21;;;;;;;30.60;4.90;;;;;;;8.43;84.87;99786.00;10373035;28;20041;-79
2023/04/19 22:16:22;;;;;;;31.40;5.93;;;;;;;8.40;84.59;99786.31;10372917;28;20053;-78
2023/04/19 22:21:24;;;;;;;35.50;4.85;;;;;;;8.61;84.59;99804.31;10373261;28;20074;-78
2023/04/19 22:26:25;;;;;;;30.48;4.90;;;;;;;8.76;84.21;99836.25;10373236;28;20061;-78
2023/04/19 22:31:26;;;;;;;24.23;3.90;;;;;;;8.82;83.72;99828.44;10372994;28;20045;-79
2023/04/19 22:36:27;;;;;;;35.10;5.00;;;;;;;8.83;83.49;99813.41;10372486;28;20498;-78
2023/04/19 22:41:28;;;;;;;19.23;3.92;;;;;;;8.47;83.35;99770.63;10372707;28;20037;-79
2023/04/19 22:46:28;;;;;;;28.20;3.97;;;;;;;8.58;83.71;99800.19;10373222;28;20045;-79
2023/04/19 22:51:29;;;;;;;24.38;4.45;;;;;;;8.64;83.22;99806.63;10372432;28;20116;-78
2023/04/19 22:56:30;;;;;;;26.95;4.68;;;;;;;7.82;83.08;99677.06;10372794;28;20045;-78
2023/04/19 23:01:31;;;;;;;29.90;4.57;;;;;;;8.06;82.88;99715.91;10371787;28;20414;-78
2023/04/19 23:06:31;;;;;;;20.77;3.92;;;;;;;7.81;82.65;99687.81;10372440;28;20038;-79
2023/04/19 23:11:33;;;;;;;22.52;4.10;;;;;;;8.28;82.45;99785.00;10371961;28;20128;-78
2023/04/19 23:16:34;;;;;;;29.52;4.53;;;;;;;8.29;81.94;99786.66;10371305;28;20049;-78
2023/04/19 23:21:35;;;;;;;34.65;4.25;;;;;;;7.74;81.68;99696.41;10361147;28;20037;-79
2023/04/19 23:26:36;;;;;;;22.17;4.80;;;;;;;8.03;81.46;99747.16;10362265;28;20069;-78